WZZ89TS LHBP-LYPG
Flight info
| Callsign | WZZ89TS |
|---|---|
| Flight time | 0h 57m |
| Altitude | 35000 |
| Route | FAHAZ DCT KEROP DCT TADAM DCT MOJ |
| Aircraft | A320/M-SDE3FGHIRWY/LB1 |
Departure
| Time | 2026-04-30 14:02 |
|---|---|
| Airport | Budapest Liszt Ferenc International Airport (LHBP) |
Arrival
| Time | 2026-04-30 15:00 |
|---|---|
| Airport | Podgorica Airport / Podgorica Golubovci Airbase (LYPG) |
| Time | Latitude | Longitude | Altitude | Speed | Heading |
|---|---|---|---|---|---|
| 2026-04-30 13:37 | 47.43420 | 19.26612 | 458 ft | 0 kts | 222° |
| 2026-04-30 13:52 | 47.43424 | 19.26617 | 458 ft | 2 kts | 222° |
| 2026-04-30 13:52 | 47.43437 | 19.26634 | 457 ft | 2 kts | 226° |
| 2026-04-30 13:52 | 47.43449 | 19.26652 | 455 ft | 3 kts | 243° |
| 2026-04-30 13:52 | 47.43454 | 19.26678 | 458 ft | 3 kts | 279° |
| 2026-04-30 13:53 | 47.43448 | 19.26702 | 457 ft | 2 kts | 314° |
| 2026-04-30 13:53 | 47.43447 | 19.26702 | 457 ft | 0 kts | 314° |
| 2026-04-30 13:55 | 47.43451 | 19.26697 | 458 ft | 2 kts | 314° |
| 2026-04-30 13:55 | 47.43465 | 19.26674 | 456 ft | 4 kts | 314° |
| 2026-04-30 13:56 | 47.43490 | 19.26634 | 458 ft | 7 kts | 311° |
| 2026-04-30 13:56 | 47.43526 | 19.26575 | 458 ft | 9 kts | 312° |
| 2026-04-30 13:56 | 47.43573 | 19.26498 | 458 ft | 11 kts | 312° |
| 2026-04-30 13:56 | 47.43632 | 19.26404 | 458 ft | 14 kts | 313° |
| 2026-04-30 13:57 | 47.43679 | 19.26275 | 458 ft | 15 kts | 274° |
| 2026-04-30 13:57 | 47.43675 | 19.26107 | 457 ft | 17 kts | 275° |
| 2026-04-30 13:57 | 47.43732 | 19.25961 | 457 ft | 16 kts | 284° |
| 2026-04-30 13:57 | 47.43673 | 19.25830 | 457 ft | 17 kts | 222° |
| 2026-04-30 13:58 | 47.43583 | 19.25708 | 457 ft | 19 kts | 222° |
| 2026-04-30 13:58 | 47.43375 | 19.25427 | 457 ft | 22 kts | 220° |
| 2026-04-30 13:58 | 47.43258 | 19.25272 | 457 ft | 22 kts | 221° |
| 2026-04-30 13:59 | 47.43157 | 19.25136 | 457 ft | 12 kts | 222° |
| 2026-04-30 13:59 | 47.43148 | 19.25125 | 457 ft | 0 kts | 222° |
| 2026-04-30 14:00 | 47.43140 | 19.25113 | 457 ft | 3 kts | 222° |
| 2026-04-30 14:00 | 47.43091 | 19.25047 | 457 ft | 7 kts | 223° |
| 2026-04-30 14:00 | 47.43079 | 19.24980 | 457 ft | 8 kts | 291° |
| 2026-04-30 14:01 | 47.43097 | 19.24943 | 457 ft | 0 kts | 313° |
| 2026-04-30 14:01 | 47.43106 | 19.24930 | 457 ft | 8 kts | 313° |
| 2026-04-30 14:01 | 47.43311 | 19.24601 | 453 ft | 77 kts | 312° |
| 2026-04-30 14:02 | 47.43802 | 19.23810 | 455 ft | 129 kts | 311° |
| 2026-04-30 14:02 | 47.44504 | 19.22680 | 532 ft | 163 kts | 316° |
| 2026-04-30 14:02 | 47.45279 | 19.21431 | 1105 ft | 165 kts | 315° |
| 2026-04-30 14:02 | 47.46057 | 19.20169 | 1773 ft | 170 kts | 315° |
| 2026-04-30 14:03 | 47.46887 | 19.18828 | 2194 ft | 184 kts | 315° |
| 2026-04-30 14:03 | 47.47789 | 19.17368 | 2594 ft | 201 kts | 316° |
| 2026-04-30 14:03 | 47.48684 | 19.15676 | 3061 ft | 219 kts | 301° |
| 2026-04-30 14:03 | 47.49207 | 19.13440 | 3593 ft | 241 kts | 282° |
| 2026-04-30 14:04 | 47.49225 | 19.10870 | 4191 ft | 261 kts | 262° |
| 2026-04-30 14:04 | 47.48640 | 19.08271 | 4958 ft | 273 kts | 242° |
| 2026-04-30 14:04 | 47.47466 | 19.06051 | 5889 ft | 278 kts | 222° |
| 2026-04-30 14:04 | 47.45817 | 19.04551 | 6810 ft | 282 kts | 200° |
| 2026-04-30 14:05 | 47.43894 | 19.04020 | 7645 ft | 284 kts | 179° |
| 2026-04-30 14:05 | 47.41900 | 19.03936 | 8420 ft | 290 kts | 186° |
| 2026-04-30 14:05 | 47.39921 | 19.03275 | 9258 ft | 295 kts | 199° |
| 2026-04-30 14:05 | 47.38038 | 19.02029 | 10030 ft | 300 kts | 205° |
| 2026-04-30 14:06 | 47.36787 | 19.01132 | 10493 ft | 304 kts | 206° |
| 2026-04-30 14:06 | 47.32940 | 18.98353 | 11836 ft | 314 kts | 206° |
| 2026-04-30 14:07 | 47.28790 | 18.95481 | 12666 ft | 341 kts | 205° |
| 2026-04-30 14:07 | 47.26621 | 18.94014 | 13324 ft | 345 kts | 204° |
| 2026-04-30 14:07 | 47.24423 | 18.92530 | 14011 ft | 349 kts | 205° |
| 2026-04-30 14:08 | 47.19970 | 18.89509 | 15222 ft | 355 kts | 205° |
| 2026-04-30 14:08 | 47.17747 | 18.87994 | 15800 ft | 359 kts | 205° |
| 2026-04-30 14:08 | 47.13049 | 18.85385 | 16978 ft | 365 kts | 189° |
| 2026-04-30 14:09 | 47.10518 | 18.85170 | 17546 ft | 367 kts | 175° |
| 2026-04-30 14:09 | 47.08005 | 18.85839 | 18111 ft | 368 kts | 160° |
| 2026-04-30 14:09 | 47.03544 | 18.89492 | 19166 ft | 372 kts | 141° |
| 2026-04-30 14:10 | 47.01436 | 18.91718 | 19668 ft | 375 kts | 142° |
| 2026-04-30 14:10 | 46.99309 | 18.93953 | 20200 ft | 378 kts | 142° |
| 2026-04-30 14:10 | 46.97162 | 18.96200 | 20716 ft | 381 kts | 142° |
| 2026-04-30 14:10 | 46.94996 | 18.98462 | 21228 ft | 384 kts | 142° |
| 2026-04-30 14:11 | 46.92814 | 19.00737 | 21718 ft | 387 kts | 142° |
| 2026-04-30 14:11 | 46.90616 | 19.03027 | 22207 ft | 390 kts | 142° |
| 2026-04-30 14:11 | 46.88397 | 19.05327 | 22690 ft | 393 kts | 142° |
| 2026-04-30 14:11 | 46.86121 | 19.07571 | 23182 ft | 396 kts | 144° |
| 2026-04-30 14:12 | 46.83793 | 19.09757 | 23670 ft | 399 kts | 145° |
| 2026-04-30 14:12 | 46.81429 | 19.11918 | 24117 ft | 402 kts | 146° |
| 2026-04-30 14:12 | 46.79044 | 19.14085 | 24547 ft | 405 kts | 146° |
| 2026-04-30 14:12 | 46.76647 | 19.16271 | 24962 ft | 407 kts | 145° |
| 2026-04-30 14:13 | 46.74243 | 19.18479 | 25371 ft | 410 kts | 145° |
| 2026-04-30 14:13 | 46.71831 | 19.20706 | 25782 ft | 412 kts | 145° |
| 2026-04-30 14:13 | 46.69404 | 19.22955 | 26186 ft | 414 kts | 145° |
| 2026-04-30 14:13 | 46.66969 | 19.25216 | 26585 ft | 417 kts | 145° |
| 2026-04-30 14:14 | 46.64518 | 19.27490 | 26973 ft | 419 kts | 145° |
| 2026-04-30 14:14 | 46.62053 | 19.29777 | 27355 ft | 421 kts | 145° |
| 2026-04-30 14:14 | 46.59571 | 19.32074 | 27735 ft | 424 kts | 145° |
| 2026-04-30 14:14 | 46.57075 | 19.34377 | 28089 ft | 426 kts | 145° |
| 2026-04-30 14:15 | 46.54565 | 19.36684 | 28444 ft | 429 kts | 145° |
| 2026-04-30 14:15 | 46.52034 | 19.39007 | 28795 ft | 431 kts | 145° |
| 2026-04-30 14:15 | 46.49492 | 19.41340 | 29132 ft | 433 kts | 145° |
| 2026-04-30 14:15 | 46.46940 | 19.43685 | 29466 ft | 436 kts | 145° |
| 2026-04-30 14:16 | 46.44371 | 19.46041 | 29807 ft | 438 kts | 145° |
| 2026-04-30 14:16 | 46.41788 | 19.48405 | 30140 ft | 440 kts | 145° |
| 2026-04-30 14:16 | 46.39194 | 19.50778 | 30456 ft | 442 kts | 146° |
| 2026-04-30 14:16 | 46.36588 | 19.53159 | 30725 ft | 445 kts | 146° |
| 2026-04-30 14:17 | 46.33959 | 19.55563 | 30998 ft | 447 kts | 146° |
| 2026-04-30 14:17 | 46.31359 | 19.57939 | 31273 ft | 450 kts | 146° |
| 2026-04-30 14:17 | 46.28669 | 19.60397 | 31548 ft | 452 kts | 146° |
| 2026-04-30 14:17 | 46.26037 | 19.62794 | 31806 ft | 455 kts | 146° |
| 2026-04-30 14:18 | 46.23307 | 19.65226 | 32079 ft | 457 kts | 150° |
| 2026-04-30 14:18 | 46.20410 | 19.67129 | 32457 ft | 457 kts | 160° |
| 2026-04-30 14:18 | 46.14186 | 19.68757 | 33204 ft | 456 kts | 181° |
| 2026-04-30 14:19 | 46.07923 | 19.67965 | 33316 ft | 455 kts | 188° |
| 2026-04-30 14:19 | 46.04787 | 19.67445 | 33318 ft | 454 kts | 188° |
| 2026-04-30 14:20 | 45.98501 | 19.66419 | 33311 ft | 454 kts | 188° |
| 2026-04-30 14:20 | 45.89076 | 19.64899 | 33321 ft | 454 kts | 188° |
| 2026-04-30 14:21 | 45.82788 | 19.63882 | 33307 ft | 458 kts | 188° |
| 2026-04-30 14:22 | 45.73243 | 19.62342 | 33320 ft | 461 kts | 188° |
| 2026-04-30 14:22 | 45.63687 | 19.60808 | 33313 ft | 460 kts | 188° |
| 2026-04-30 14:23 | 45.50952 | 19.58780 | 33309 ft | 460 kts | 188° |
| 2026-04-30 14:24 | 45.41414 | 19.57261 | 33305 ft | 460 kts | 188° |
| 2026-04-30 14:25 | 45.28696 | 19.55239 | 33300 ft | 459 kts | 188° |
| 2026-04-30 14:26 | 45.19113 | 19.54681 | 33312 ft | 461 kts | 181° |
| 2026-04-30 14:27 | 45.09483 | 19.54819 | 33302 ft | 461 kts | 181° |
| 2026-04-30 14:27 | 45.03108 | 19.54897 | 33300 ft | 461 kts | 181° |
| 2026-04-30 14:28 | 44.93486 | 19.55020 | 33304 ft | 461 kts | 182° |
| 2026-04-30 14:28 | 44.87070 | 19.55101 | 33301 ft | 461 kts | 182° |
| 2026-04-30 14:29 | 44.75285 | 19.55263 | 33299 ft | 461 kts | 182° |
| 2026-04-30 14:31 | 44.58233 | 19.55487 | 33292 ft | 460 kts | 182° |
| 2026-04-30 14:31 | 44.48642 | 19.55606 | 33293 ft | 460 kts | 182° |
| 2026-04-30 14:32 | 44.39047 | 19.55723 | 33288 ft | 459 kts | 182° |
| 2026-04-30 14:33 | 44.32660 | 19.55805 | 33285 ft | 459 kts | 183° |
| 2026-04-30 14:33 | 44.23074 | 19.55936 | 33286 ft | 459 kts | 183° |
| 2026-04-30 14:34 | 44.16734 | 19.56016 | 33286 ft | 458 kts | 183° |
| 2026-04-30 14:34 | 44.10352 | 19.56101 | 33284 ft | 458 kts | 183° |
| 2026-04-30 14:35 | 44.05027 | 19.56174 | 32448 ft | 454 kts | 183° |
| 2026-04-30 14:35 | 44.00880 | 19.56230 | 31801 ft | 447 kts | 183° |
| 2026-04-30 14:35 | 43.97784 | 19.56269 | 31319 ft | 443 kts | 183° |
| 2026-04-30 14:36 | 43.94709 | 19.56308 | 30839 ft | 438 kts | 183° |
| 2026-04-30 14:36 | 43.91675 | 19.56345 | 30379 ft | 435 kts | 183° |
| 2026-04-30 14:36 | 43.88665 | 19.56381 | 29868 ft | 430 kts | 183° |
| 2026-04-30 14:36 | 43.85692 | 19.56419 | 29439 ft | 424 kts | 183° |
| 2026-04-30 14:37 | 43.82762 | 19.56458 | 29001 ft | 419 kts | 183° |
| 2026-04-30 14:37 | 43.79866 | 19.56498 | 28585 ft | 414 kts | 183° |
| 2026-04-30 14:37 | 43.76999 | 19.56538 | 28161 ft | 410 kts | 183° |
| 2026-04-30 14:37 | 43.74158 | 19.56573 | 27753 ft | 406 kts | 183° |
| 2026-04-30 14:38 | 43.71337 | 19.56606 | 27343 ft | 404 kts | 183° |
| 2026-04-30 14:38 | 43.68535 | 19.56640 | 26922 ft | 402 kts | 183° |
| 2026-04-30 14:38 | 43.65747 | 19.56675 | 26503 ft | 400 kts | 183° |
| 2026-04-30 14:38 | 43.62973 | 19.56708 | 26080 ft | 398 kts | 183° |
| 2026-04-30 14:39 | 43.60208 | 19.56740 | 25640 ft | 397 kts | 183° |
| 2026-04-30 14:39 | 43.57454 | 19.56773 | 25222 ft | 395 kts | 183° |
| 2026-04-30 14:39 | 43.54702 | 19.56803 | 24763 ft | 394 kts | 182° |
| 2026-04-30 14:40 | 43.49237 | 19.56867 | 23864 ft | 392 kts | 182° |
| 2026-04-30 14:40 | 43.46509 | 19.56903 | 23349 ft | 391 kts | 182° |
| 2026-04-30 14:40 | 43.43801 | 19.56941 | 22888 ft | 387 kts | 182° |
| 2026-04-30 14:40 | 43.41118 | 19.56980 | 22449 ft | 384 kts | 182° |
| 2026-04-30 14:41 | 43.38458 | 19.57020 | 22001 ft | 380 kts | 182° |
| 2026-04-30 14:41 | 43.35858 | 19.57054 | 21561 ft | 376 kts | 183° |
| 2026-04-30 14:41 | 43.33214 | 19.57082 | 21117 ft | 374 kts | 183° |
| 2026-04-30 14:41 | 43.30625 | 19.57106 | 20669 ft | 371 kts | 182° |
| 2026-04-30 14:42 | 43.28052 | 19.57133 | 20237 ft | 369 kts | 182° |
| 2026-04-30 14:42 | 43.25526 | 19.57165 | 19807 ft | 367 kts | 182° |
| 2026-04-30 14:42 | 43.22980 | 19.57198 | 19364 ft | 365 kts | 182° |
| 2026-04-30 14:42 | 43.20440 | 19.57232 | 18929 ft | 363 kts | 182° |
| 2026-04-30 14:43 | 43.17918 | 19.57268 | 18487 ft | 362 kts | 181° |
| 2026-04-30 14:43 | 43.15408 | 19.57301 | 18027 ft | 359 kts | 181° |
| 2026-04-30 14:43 | 43.12922 | 19.57333 | 17604 ft | 356 kts | 181° |
| 2026-04-30 14:43 | 43.10454 | 19.57365 | 17172 ft | 353 kts | 181° |
| 2026-04-30 14:44 | 43.08003 | 19.57396 | 16750 ft | 351 kts | 181° |
| 2026-04-30 14:44 | 43.05572 | 19.57426 | 16322 ft | 348 kts | 181° |
| 2026-04-30 14:44 | 43.03156 | 19.57453 | 15910 ft | 346 kts | 181° |
| 2026-04-30 14:44 | 43.00754 | 19.57481 | 15506 ft | 344 kts | 180° |
| 2026-04-30 14:45 | 42.98366 | 19.57514 | 15097 ft | 342 kts | 180° |
| 2026-04-30 14:45 | 42.95995 | 19.57518 | 14711 ft | 339 kts | 184° |
| 2026-04-30 14:45 | 42.93687 | 19.57000 | 14319 ft | 335 kts | 198° |
| 2026-04-30 14:45 | 42.91523 | 19.55855 | 13923 ft | 332 kts | 205° |
| 2026-04-30 14:46 | 42.89405 | 19.54612 | 13522 ft | 330 kts | 205° |
| 2026-04-30 14:46 | 42.87300 | 19.53390 | 13142 ft | 328 kts | 205° |
| 2026-04-30 14:46 | 42.85208 | 19.52180 | 12760 ft | 326 kts | 205° |
| 2026-04-30 14:46 | 42.83827 | 19.51383 | 12514 ft | 324 kts | 205° |
| 2026-04-30 14:47 | 42.81062 | 19.49791 | 12007 ft | 321 kts | 205° |
| 2026-04-30 14:47 | 42.79002 | 19.48608 | 11625 ft | 320 kts | 205° |
| 2026-04-30 14:47 | 42.76950 | 19.47428 | 11241 ft | 320 kts | 204° |
| 2026-04-30 14:47 | 42.74933 | 19.46268 | 10868 ft | 317 kts | 205° |
| 2026-04-30 14:48 | 42.72911 | 19.45103 | 10501 ft | 315 kts | 205° |
| 2026-04-30 14:48 | 42.70899 | 19.43944 | 10215 ft | 311 kts | 205° |
| 2026-04-30 14:48 | 42.68903 | 19.42795 | 9874 ft | 310 kts | 205° |
| 2026-04-30 14:48 | 42.66936 | 19.41663 | 9565 ft | 306 kts | 204° |
| 2026-04-30 14:49 | 42.64971 | 19.40533 | 9176 ft | 305 kts | 204° |
| 2026-04-30 14:49 | 42.63047 | 19.39429 | 9033 ft | 295 kts | 204° |
| 2026-04-30 14:49 | 42.61186 | 19.38364 | 8852 ft | 286 kts | 204° |
| 2026-04-30 14:49 | 42.59361 | 19.37319 | 8523 ft | 284 kts | 203° |
| 2026-04-30 14:50 | 42.55754 | 19.35249 | 7989 ft | 277 kts | 202° |
| 2026-04-30 14:50 | 42.54002 | 19.34244 | 7770 ft | 270 kts | 202° |
| 2026-04-30 14:51 | 42.50374 | 19.33374 | 7157 ft | 265 kts | 182° |
| 2026-04-30 14:51 | 42.48544 | 19.33194 | 6884 ft | 263 kts | 181° |
| 2026-04-30 14:51 | 42.44901 | 19.32816 | 6250 ft | 261 kts | 182° |
| 2026-04-30 14:52 | 42.43093 | 19.32627 | 5980 ft | 259 kts | 182° |
| 2026-04-30 14:52 | 42.39532 | 19.32253 | 5384 ft | 255 kts | 182° |
| 2026-04-30 14:52 | 42.37770 | 19.32070 | 5091 ft | 253 kts | 181° |
| 2026-04-30 14:53 | 42.34805 | 19.31768 | 4150 ft | 267 kts | 182° |
| 2026-04-30 14:53 | 42.32308 | 19.31516 | 3167 ft | 275 kts | 182° |
| 2026-04-30 14:54 | 42.28556 | 19.31130 | 2322 ft | 259 kts | 182° |
| 2026-04-30 14:54 | 42.25279 | 19.30796 | 2313 ft | 217 kts | 182° |
| 2026-04-30 14:55 | 42.22954 | 19.30037 | 2309 ft | 206 kts | 212° |
| 2026-04-30 14:55 | 42.21952 | 19.28660 | 2301 ft | 208 kts | 242° |
| 2026-04-30 14:55 | 42.22301 | 19.24956 | 2309 ft | 161 kts | 319° |
| 2026-04-30 14:56 | 42.23842 | 19.23982 | 2298 ft | 144 kts | 1° |
| 2026-04-30 14:56 | 42.25843 | 19.24162 | 2032 ft | 144 kts | 7° |
| 2026-04-30 14:57 | 42.26802 | 19.24259 | 1858 ft | 136 kts | 7° |
| 2026-04-30 14:57 | 42.28699 | 19.24452 | 1445 ft | 136 kts | 6° |
| 2026-04-30 14:58 | 42.30562 | 19.24646 | 1034 ft | 132 kts | 4° |
| 2026-04-30 14:58 | 42.31480 | 19.24732 | 874 ft | 131 kts | 3° |
| 2026-04-30 14:58 | 42.33286 | 19.24910 | 482 ft | 128 kts | 4° |
| 2026-04-30 14:59 | 42.35030 | 19.25092 | 127 ft | 123 kts | 3° |
| 2026-04-30 15:00 | 42.36569 | 19.25252 | 112 ft | 13 kts | 354° |
| 2026-04-30 15:00 | 42.36625 | 19.25069 | 110 ft | 5 kts | 274° |
| 2026-04-30 15:01 | 42.36637 | 19.24899 | 106 ft | 8 kts | 275° |
| 2026-04-30 15:01 | 42.36656 | 19.24835 | 104 ft | 8 kts | 322° |
| 2026-04-30 15:01 | 42.36733 | 19.24799 | 106 ft | 5 kts | 278° |
| 2026-04-30 15:02 | 42.36736 | 19.24764 | 106 ft | 1 kts | 282° |
| 2026-04-30 15:02 | 42.36744 | 19.24752 | 105 ft | 0 kts | 320° |
| 2026-04-30 15:03 | 42.36747 | 19.24749 | 105 ft | 0 kts | 323° |